Time;durP1;ratioP1;P1;durP2;ratioP2;P2;SDS_P1;SDS_P2;PMS_P1;PMS_P2;Temp;Humidity;BMP_temperature;BMP_pressure;BME280_temperature;BME280_humidity;BME280_pressure;Samples;Min_cycle;Max_cycle;Signal;HPM_P1;HPM_P2
2023/05/21 00:00:19;;;;;;;4.70;3.42;;;;;;;17.49;49.71;100133.31;5049418;28;20088;-80
2023/05/21 00:02:46;;;;;;;4.22;3.30;;;;;;;17.48;50.00;100131.63;5049502;28;20088;-81
2023/05/21 00:05:14;;;;;;;4.15;3.60;;;;;;;17.48;49.81;100131.63;5031460;28;20067;-81
2023/05/21 00:07:40;;;;;;;4.72;3.80;;;;;;;17.48;50.04;100139.63;5049122;28;20056;-81
2023/05/21 00:10:07;;;;;;;4.63;3.40;;;;;;;17.47;50.15;100137.06;5049245;28;20160;-81
2023/05/21 00:12:34;;;;;;;4.43;3.75;;;;;;;17.46;50.17;100125.59;5049245;28;20093;-80
2023/05/21 00:15:01;;;;;;;6.00;3.75;;;;;;;17.48;50.17;100136.94;5031143;28;20503;-81
2023/05/21 00:17:27;;;;;;;5.22;4.03;;;;;;;17.49;50.09;100130.66;5031154;28;20085;-81
2023/05/21 00:19:55;;;;;;;5.07;3.85;;;;;;;17.49;50.25;100124.50;5031430;28;20091;-81
2023/05/21 00:22:22;;;;;;;5.57;3.88;;;;;;;17.49;50.14;100128.00;5049359;28;20056;-81
2023/05/21 00:24:49;;;;;;;6.38;3.78;;;;;;;17.50;50.42;100123.53;5047807;28;20060;-81
2023/05/21 00:27:16;;;;;;;6.32;3.83;;;;;;;17.49;50.36;100125.31;5031247;28;20059;-80
2023/05/21 00:29:42;;;;;;;5.30;4.18;;;;;;;17.48;50.65;100120.97;5049269;28;20482;-81
2023/05/21 00:32:10;;;;;;;10.18;3.72;;;;;;;17.48;50.52;100115.66;5031470;28;20140;-81
2023/05/21 00:34:37;;;;;;;5.05;4.18;;;;;;;17.48;50.53;100117.47;5049123;28;20065;-81
2023/05/21 00:37:03;;;;;;;5.45;4.03;;;;;;;17.45;50.49;100116.75;5048594;28;20135;-81
2023/05/21 00:39:30;;;;;;;5.20;4.03;;;;;;;17.43;50.53;100109.88;5049291;28;20130;-81
2023/05/21 00:41:56;;;;;;;6.03;4.00;;;;;;;17.40;50.63;100108.31;5049102;28;20072;-81
2023/05/21 00:44:24;;;;;;;5.03;4.20;;;;;;;17.39;50.57;100111.09;5049194;28;20041;-81
2023/05/21 00:46:54;;;;;;;7.78;4.15;;;;;;;17.37;50.69;100113.00;5048222;28;20511;-80
2023/05/21 00:49:23;;;;;;;3.85;3.55;;;;;;;17.34;51.03;100108.78;5049246;28;20063;-80
2023/05/21 00:51:50;;;;;;;6.25;4.18;;;;;;;17.33;51.04;100115.06;5049010;28;20061;-81
2023/05/21 00:54:17;;;;;;;4.72;3.95;;;;;;;17.30;51.15;100102.00;5049030;28;20106;-81
2023/05/21 00:56:45;;;;;;;6.88;4.20;;;;;;;17.28;51.11;100110.13;5030471;28;20064;-81
2023/05/21 02:12:08;;;;;;;6.32;4.07;;;;;;;16.28;52.54;100067.25;5020331;23;20160;-77
2023/05/21 02:14:35;;;;;;;6.18;4.32;;;;;;;16.26;52.71;100066.50;5027341;28;20486;-76
2023/05/21 02:17:02;;;;;;;8.48;4.80;;;;;;;16.25;52.94;100056.00;5030064;28;20304;-77
2023/05/21 02:19:28;;;;;;;5.28;4.22;;;;;;;16.24;53.30;100062.28;5032354;28;20061;-77
2023/05/21 02:21:55;;;;;;;7.22;4.93;;;;;;;16.25;53.48;100063.97;5032000;28;20049;-78
2023/05/21 02:24:23;;;;;;;5.43;4.63;;;;;;;16.24;53.74;100052.50;5025277;28;20073;-78
2023/05/21 02:26:51;;;;;;;5.68;4.72;;;;;;;16.25;53.74;100054.19;5030191;28;20046;-77
2023/05/21 02:29:18;;;;;;;7.10;5.00;;;;;;;16.26;53.59;100055.88;5040837;28;20103;-77
2023/05/21 02:31:45;;;;;;;5.38;4.35;;;;;;;16.26;53.88;100055.88;5032279;28;20708;-77
2023/05/21 02:34:11;;;;;;;9.30;4.57;;;;;;;16.28;53.82;100047.81;5023137;28;20073;-78
2023/05/21 02:36:40;;;;;;;10.02;4.82;;;;;;;16.28;54.02;100059.28;5029809;28;20564;-78
2023/05/21 02:39:07;;;;;;;7.13;4.85;;;;;;;16.28;53.74;100059.28;5031229;28;20057;-77
2023/05/21 02:41:33;;;;;;;5.75;4.22;;;;;;;16.28;53.90;100056.63;5026983;28;20084;-77
2023/05/21 02:44:00;;;;;;;6.05;4.75;;;;;;;16.30;53.95;100045.03;5030048;28;20057;-77
2023/05/21 02:46:26;;;;;;;6.53;4.80;;;;;;;16.30;53.96;100045.91;5025590;28;20058;-77
2023/05/21 02:48:53;;;;;;;5.65;4.60;;;;;;;16.28;53.79;100046.00;5031245;28;20115;-78
2023/05/21 02:51:19;;;;;;;7.72;4.82;;;;;;;16.28;54.04;100046.00;5031062;28;20053;-77
2023/05/21 02:53:47;;;;;;;6.22;4.65;;;;;;;16.27;54.17;100038.16;5027997;28;20054;-77
2023/05/21 02:56:13;;;;;;;6.03;4.72;;;;;;;16.25;54.06;100042.72;5030987;28;20069;-77
2023/05/21 02:58:40;;;;;;;7.22;4.68;;;;;;;16.23;54.25;100037.53;5026909;28;20056;-76
2023/05/21 03:01:07;;;;;;;8.32;4.65;;;;;;;16.21;54.15;100044.78;5022386;28;20136;-78
2023/05/21 03:03:33;;;;;;;7.28;4.80;;;;;;;16.20;54.22;100044.88;5030284;28;20057;-78
2023/05/21 03:06:00;;;;;;;6.38;4.88;;;;;;;16.17;54.35;100039.81;5030442;28;20072;-77
2023/05/21 03:08:27;;;;;;;6.53;4.95;;;;;;;16.14;54.42;100046.19;5030964;28;20068;-76
2023/05/21 03:10:54;;;;;;;8.05;4.90;;;;;;;16.10;54.42;100037.63;5028562;28;20058;-76
2023/05/21 03:13:21;;;;;;;8.70;4.90;;;;;;;16.05;54.48;100042.44;5031219;28;20058;-77
2023/05/21 03:15:47;;;;;;;8.02;5.10;;;;;;;16.01;54.71;100041.81;5027736;28;20080;-77
2023/05/21 03:18:15;;;;;;;7.65;4.80;;;;;;;15.97;54.81;100040.38;5030278;28;20060;-77
2023/05/21 03:20:44;;;;;;;7.00;5.53;;;;;;;15.96;54.89;100043.97;5026677;28;20487;-78
2023/05/21 03:23:12;;;;;;;6.03;4.72;;;;;;;15.94;54.90;100039.72;5022472;28;20119;-77
2023/05/21 03:25:42;;;;;;;7.15;5.20;;;;;;;15.91;54.92;100030.16;5029689;28;20080;-77
2023/05/21 03:28:08;;;;;;;6.57;5.40;;;;;;;15.88;54.94;100030.38;5030048;28;20049;-77
2023/05/21 03:30:37;;;;;;;6.78;4.88;;;;;;;15.85;55.12;100035.94;5026440;28;20442;-78
2023/05/21 03:33:03;;;;;;;5.00;4.53;;;;;;;15.83;55.13;100027.25;5029100;28;20433;-76
2023/05/21 03:35:30;;;;;;;6.75;5.05;;;;;;;15.80;55.21;100030.97;5029277;28;20076;-78
2023/05/21 03:37:57;;;;;;;6.78;5.38;;;;;;;15.79;55.46;100025.78;5028458;28;20148;-77
2023/05/21 03:40:24;;;;;;;6.18;5.15;;;;;;;15.77;55.44;100026.75;5024438;28;20843;-77
2023/05/21 03:42:50;;;;;;;12.55;5.53;;;;;;;15.75;55.70;100028.66;5029124;28;20144;-78
2023/05/21 03:45:17;;;;;;;9.50;5.03;;;;;;;15.74;55.52;100024.31;5023026;28;20061;-77
2023/05/21 03:47:44;;;;;;;6.43;5.53;;;;;;;15.74;56.01;100026.97;5028854;28;20064;-77
2023/05/21 03:50:11;;;;;;;6.03;5.13;;;;;;;15.73;55.97;100022.63;5022301;28;20049;-78
2023/05/21 03:52:38;;;;;;;9.10;5.43;;;;;;;15.73;56.08;100027.06;5045856;28;20498;-77
2023/05/21 03:55:05;;;;;;;15.02;5.50;;;;;;;15.72;56.01;100026.25;5020804;28;20061;-76
2023/05/21 03:57:32;;;;;;;6.25;4.72;;;;;;;15.71;56.12;100031.66;5028843;28;20053;-77
2023/05/21 03:59:58;;;;;;;6.03;5.15;;;;;;;15.71;56.05;100023.69;5030026;28;20050;-76
2023/05/21 04:02:26;;;;;;;7.40;4.82;;;;;;;15.71;56.26;100029.00;5040798;28;20068;-76
2023/05/21 04:04:54;;;;;;;7.90;5.43;;;;;;;15.70;56.23;100028.16;5028495;28;20057;-76
2023/05/21 04:07:21;;;;;;;7.13;5.85;;;;;;;15.70;56.32;100029.97;5039633;28;20061;-77
2023/05/21 04:09:48;;;;;;;11.40;5.70;;;;;;;15.71;56.31;100031.66;5028278;28;20575;-76
2023/05/21 04:12:16;;;;;;;7.35;5.38;;;;;;;15.71;56.43;100034.31;5030546;28;20057;-76
2023/05/21 04:14:43;;;;;;;7.57;4.97;;;;;;;15.70;56.59;100028.16;5030064;28;20145;-76
2023/05/21 04:17:11;;;;;;;8.30;5.22;;;;;;;15.72;56.49;100036.88;5029683;28;20397;-75
2023/05/21 04:19:38;;;;;;;6.78;5.35;;;;;;;15.73;56.56;100035.03;5030489;28;20085;-77
2023/05/21 04:22:05;;;;;;;6.35;4.85;;;;;;;15.74;56.73;100031.44;5020821;28;20064;-76
2023/05/21 04:24:31;;;;;;;8.90;6.10;;;;;;;15.75;56.60;100033.97;5030569;28;20168;-76
2023/05/21 04:27:00;;;;;;;6.78;5.38;;;;;;;15.78;56.76;100035.56;5027234;28;20053;-77
2023/05/21 04:29:28;;;;;;;7.05;4.80;;;;;;;15.80;56.57;100033.63;5040725;28;20104;-76
2023/05/21 04:31:55;;;;;;;8.60;5.45;;;;;;;15.82;56.69;100030.88;5029123;28;20137;-77
2023/05/21 04:34:22;;;;;;;8.80;5.40;;;;;;;15.83;56.69;100033.41;5034164;28;20100;-76
2023/05/21 04:36:48;;;;;;;6.30;5.07;;;;;;;15.82;56.77;100039.69;5032886;28;20481;-77
2023/05/21 04:39:15;;;;;;;8.55;5.70;;;;;;;15.85;56.74;100041.25;5026592;28;20071;-77
2023/05/21 04:41:43;;;;;;;7.00;5.60;;;;;;;15.86;57.06;100037.63;5033738;28;20457;-77
2023/05/21 04:44:13;;;;;;;8.52;5.63;;;;;;;15.88;57.15;100041.88;5025428;28;20061;-77
2023/05/21 04:46:41;;;;;;;8.52;5.05;;;;;;;15.92;56.78;100044.31;5033226;28;20565;-76
2023/05/21 04:49:09;;;;;;;9.50;5.30;;;;;;;15.94;57.21;100048.56;5033476;28;20149;-76
2023/05/21 04:51:36;;;;;;;7.72;5.80;;;;;;;15.97;57.06;100051.00;5033954;28;20058;-77
2023/05/21 04:54:03;;;;;;;7.45;5.43;;;;;;;16.00;57.14;100045.44;5023942;28;20533;-76
2023/05/21 04:56:30;;;;;;;7.13;5.50;;;;;;;16.01;57.32;100041.81;5031993;28;20061;-76
2023/05/21 04:58:57;;;;;;;6.38;5.25;;;;;;;16.05;57.27;100041.59;5031303;28;20502;-76
2023/05/21 05:01:25;;;;;;;6.68;5.28;;;;;;;16.09;57.17;100043.03;5027687;28;20072;-77
2023/05/21 05:03:52;;;;;;;8.93;5.47;;;;;;;16.11;57.26;100034.00;5032082;28;20069;-75
2023/05/21 05:06:20;;;;;;;7.05;5.63;;;;;;;16.15;57.05;100034.63;5026262;28;20473;-77
2023/05/21 05:08:47;;;;;;;6.60;5.30;;;;;;;16.19;57.34;100035.22;5032637;28;20053;-77
2023/05/21 05:11:13;;;;;;;7.05;5.32;;;;;;;16.23;57.34;100031.38;5033222;28;20072;-77
2023/05/21 05:13:40;;;;;;;6.18;5.35;;;;;;;16.28;57.29;100038.03;5033625;28;20119;-76
2023/05/21 05:16:08;;;;;;;7.22;4.90;;;;;;;16.33;57.37;100034.19;5024300;28;20480;-76
2023/05/21 05:18:35;;;;;;;8.68;5.13;;;;;;;16.36;57.20;100039.25;5033022;28;20067;-76
2023/05/21 05:21:02;;;;;;;12.98;5.60;;;;;;;16.42;57.22;100026.31;5024631;28;20119;-77
2023/05/21 05:23:28;;;;;;;7.00;5.35;;;;;;;16.48;57.09;100027.66;5033347;28;20069;-76
2023/05/21 05:25:55;;;;;;;6.05;4.95;;;;;;;16.54;57.23;100031.66;5030355;28;20065;-76
2023/05/21 05:28:22;;;;;;;8.85;5.60;;;;;;;16.58;56.94;100026.94;5026358;28;20061;-78
2023/05/21 05:30:48;;;;;;;10.20;5.50;;;;;;;16.64;56.78;100021.16;5032662;28;20053;-76
2023/05/21 05:33:15;;;;;;;8.23;5.07;;;;;;;16.66;56.98;100027.19;5033264;28;20058;-77
2023/05/21 05:35:42;;;;;;;9.43;4.78;;;;;;;16.71;56.70;100025.00;5028203;28;20057;-77
2023/05/21 05:38:09;;;;;;;7.82;4.90;;;;;;;16.74;56.63;100026.63;5024112;28;20053;-77
2023/05/21 05:40:36;;;;;;;8.65;5.38;;;;;;;16.76;56.64;100017.53;5032879;28;20060;-77
2023/05/21 05:43:02;;;;;;;7.75;4.68;;;;;;;16.79;56.53;100013.78;5023383;28;20152;-78
2023/05/21 05:45:29;;;;;;;7.25;5.03;;;;;;;16.82;56.53;100018.84;5030718;28;20061;-78
2023/05/21 05:47:55;;;;;;;7.28;5.40;;;;;;;16.86;57.00;100014.97;5031060;28;20061;-77
2023/05/21 05:50:22;;;;;;;10.13;5.32;;;;;;;16.88;56.29;100010.41;5026219;28;20080;-77
2023/05/21 05:52:48;;;;;;;9.15;5.28;;;;;;;16.90;56.46;100010.28;5032316;28;20053;-78
2023/05/21 05:55:15;;;;;;;6.70;4.88;;;;;;;16.90;56.35;100010.28;5032291;28;20089;-78
2023/05/21 05:57:42;;;;;;;7.47;5.25;;;;;;;16.91;56.25;100006.66;5031846;28;20092;-77
2023/05/21 06:00:11;;;;;;;6.68;4.95;;;;;;;16.92;56.25;100011.00;5032680;28;20104;-78
2023/05/21 06:02:38;;;;;;;6.25;4.47;;;;;;;16.92;56.48;99995.03;5032153;28;20054;-79
2023/05/21 06:05:08;;;;;;;8.60;4.68;;;;;;;16.93;56.69;100007.34;5032294;28;20061;-78
2023/05/21 06:07:39;;;;;;;11.15;5.53;;;;;;;16.92;56.71;100006.53;5026909;28;20089;-79
2023/05/21 06:10:07;;;;;;;7.25;4.90;;;;;;;16.97;56.72;100003.47;5032386;28;20064;-78
2023/05/21 06:12:34;;;;;;;7.43;5.10;;;;;;;16.99;56.51;100004.22;5027497;28;20061;-78
2023/05/21 06:15:01;;;;;;;8.88;5.25;;;;;;;17.03;56.50;99991.50;5030156;28;20072;-77
2023/05/21 06:17:27;;;;;;;8.23;5.32;;;;;;;17.06;56.70;99997.47;5026192;28;20061;-77
2023/05/21 06:19:54;;;;;;;7.90;5.20;;;;;;;17.09;56.44;99999.03;5030394;28;20208;-79
2023/05/21 06:22:20;;;;;;;8.20;5.13;;;;;;;17.13;56.65;99996.97;5025628;28;20057;-78
2023/05/21 06:24:50;;;;;;;7.10;5.00;;;;;;;17.16;56.50;99994.06;5031503;28;20093;-78
2023/05/21 06:27:17;;;;;;;6.47;5.13;;;;;;;17.19;56.19;99993.81;5024536;28;20092;-77
2023/05/21 06:29:44;;;;;;;9.50;5.22;;;;;;;17.22;56.50;99988.25;5030369;28;20065;-79
2023/05/21 06:32:10;;;;;;;10.02;5.40;;;;;;;17.26;56.45;99992.34;5032093;28;20061;-79
2023/05/21 06:34:37;;;;;;;8.32;5.50;;;;;;;17.28;56.57;99982.44;5043243;28;20050;-78
2023/05/21 06:37:04;;;;;;;9.20;5.35;;;;;;;17.31;56.46;99987.47;5022162;28;20057;-79
2023/05/21 06:39:30;;;;;;;10.30;5.43;;;;;;;17.33;56.50;99987.38;5030977;28;20164;-78
2023/05/21 06:41:57;;;;;;;8.73;5.47;;;;;;;17.38;56.39;99984.34;5030146;28;20065;-77
2023/05/21 06:44:23;;;;;;;7.13;5.22;;;;;;;17.40;56.41;99980.56;5025383;28;20111;-79
2023/05/21 06:46:50;;;;;;;7.25;5.47;;;;;;;17.44;56.38;99990.00;5029354;28;20115;-79
2023/05/21 06:49:16;;;;;;;8.55;5.53;;;;;;;17.47;56.37;99988.91;5024625;28;20061;-78
2023/05/21 06:51:43;;;;;;;7.45;5.32;;;;;;;17.50;56.36;99988.66;5030031;28;20054;-79
2023/05/21 06:54:10;;;;;;;9.43;5.72;;;;;;;17.53;56.44;99983.06;5023508;28;20076;-80
2023/05/21 06:56:36;;;;;;;8.25;5.43;;;;;;;17.57;56.18;99979.16;5028245;28;20124;-79
2023/05/21 06:59:03;;;;;;;6.45;5.40;;;;;;;17.61;56.68;99981.56;5038628;28;20107;-77
2023/05/21 07:01:31;;;;;;;7.60;5.65;;;;;;;17.66;56.32;99987.34;5029501;28;20140;-77
2023/05/21 07:03:57;;;;;;;7.00;5.10;;;;;;;17.72;56.45;99989.53;5031821;28;20049;-78
2023/05/21 07:06:24;;;;;;;6.40;5.22;;;;;;;17.77;56.54;99979.31;5030985;28;20069;-78
2023/05/21 07:08:51;;;;;;;6.80;5.45;;;;;;;17.83;56.40;99986.78;5027703;28;20425;-78
2023/05/21 07:11:17;;;;;;;7.60;5.68;;;;;;;17.87;56.42;99987.38;5024028;28;20148;-77
2023/05/21 07:13:44;;;;;;;7.20;5.38;;;;;;;17.92;56.54;99989.66;5028998;28;20164;-78
2023/05/21 07:16:10;;;;;;;8.05;5.47;;;;;;;17.97;56.41;99993.63;5030605;28;20059;-78
2023/05/21 07:18:37;;;;;;;9.88;5.70;;;;;;;18.03;56.31;99986.06;5025629;28;20057;-79
2023/05/21 07:21:03;;;;;;;7.70;5.70;;;;;;;18.08;56.41;99990.06;5022381;28;20057;-79
2023/05/21 07:23:30;;;;;;;8.57;5.53;;;;;;;18.15;56.15;99997.53;5029287;28;20107;-79
2023/05/21 07:25:56;;;;;;;9.15;5.68;;;;;;;18.21;56.41;99986.38;5030605;28;20057;-78
2023/05/21 07:28:23;;;;;;;9.98;5.47;;;;;;;18.28;56.28;99990.16;5029965;28;20737;-80
2023/05/21 07:30:49;;;;;;;8.25;6.03;;;;;;;18.34;55.95;99987.00;5030988;28;20061;-80
2023/05/21 07:33:19;;;;;;;8.00;5.55;;;;;;;18.39;56.46;99986.56;5031305;28;20509;-78
2023/05/21 07:35:45;;;;;;;6.18;5.50;;;;;;;18.46;55.98;99982.41;5026605;28;20057;-78
2023/05/21 07:38:12;;;;;;;7.63;5.53;;;;;;;18.52;55.76;99990.84;5030279;28;20525;-79
2023/05/21 07:40:39;;;;;;;10.18;5.97;;;;;;;18.56;55.74;99985.13;5026019;28;20053;-78
2023/05/21 07:43:05;;;;;;;7.88;5.63;;;;;;;18.61;55.53;99985.56;5030631;28;20049;-79
2023/05/21 07:45:32;;;;;;;8.13;5.60;;;;;;;18.68;55.67;99993.00;5028896;28;20569;-78
2023/05/21 07:47:58;;;;;;;9.40;6.30;;;;;;;18.71;55.81;99982.94;5029983;28;20057;-79
2023/05/21 07:50:25;;;;;;;8.50;5.38;;;;;;;18.78;55.60;99982.38;5030024;28;20144;-78
2023/05/21 07:52:52;;;;;;;8.45;6.35;;;;;;;18.82;55.65;99987.31;5013061;28;20049;-78
2023/05/21 07:55:19;;;;;;;9.05;6.38;;;;;;;18.85;55.43;99984.41;5030283;28;20079;-80
2023/05/21 07:57:45;;;;;;;10.00;6.97;;;;;;;18.91;55.18;99985.66;5029861;28;20470;-79
2023/05/21 08:00:13;;;;;;;10.23;6.78;;;;;;;18.96;55.61;99982.59;5030743;28;20487;-78
2023/05/21 08:02:39;;;;;;;8.77;6.65;;;;;;;19.02;55.55;99992.69;5012633;28;20061;-78
2023/05/21 08:05:07;;;;;;;7.82;5.88;;;;;;;19.08;55.61;99994.88;5030295;28;20053;-79
2023/05/21 08:07:33;;;;;;;10.00;6.57;;;;;;;19.14;55.66;100002.31;5013632;28;20581;-79
2023/05/21 09:05:08;;;;;;;9.70;7.65;;;;;;;20.88;54.03;99989.13;5030861;22;20566;-78
2023/05/21 09:07:42;;;;;;;11.52;8.02;;;;;;;20.96;53.99;99992.75;5013234;28;20112;-78
2023/05/21 09:10:11;;;;;;;9.05;8.07;;;;;;;21.05;54.00;99984.81;5013759;28;20874;-78
2023/05/21 09:12:38;;;;;;;11.10;8.82;;;;;;;21.15;54.05;99984.78;5009702;28;20050;-78
2023/05/21 09:15:06;;;;;;;10.95;8.85;;;;;;;21.23;53.88;99982.16;5013084;28;20054;-78
2023/05/21 09:17:32;;;;;;;10.23;8.68;;;;;;;21.33;53.70;99971.38;5013470;28;20758;-78
2023/05/21 09:20:08;;;;;;;11.05;8.40;;;;;;;21.41;53.61;99970.63;5012762;28;20050;-78
2023/05/21 09:22:48;;;;;;;10.90;9.35;;;;;;;21.50;53.46;99974.22;5009429;28;20092;-78
2023/05/21 09:25:17;;;;;;;10.63;9.52;;;;;;;21.62;53.23;99983.69;5012896;28;20503;-78
2023/05/21 09:27:44;;;;;;;11.55;9.25;;;;;;;21.71;53.19;99979.22;5013258;28;20058;-78
2023/05/21 09:30:16;;;;;;;12.60;8.68;;;;;;;21.79;53.17;99982.00;5013017;28;20545;-78
2023/05/21 09:32:43;;;;;;;11.15;8.90;;;;;;;21.90;52.93;99988.97;5013544;28;20088;-78
2023/05/21 09:35:12;;;;;;;10.73;8.68;;;;;;;21.98;52.84;99986.34;5012426;28;20050;-78
2023/05/21 09:37:47;;;;;;;11.98;9.13;;;;;;;22.08;52.99;99985.41;5012931;28;20108;-79
2023/05/21 09:40:15;;;;;;;16.05;9.95;;;;;;;22.16;52.62;99985.44;5012991;28;20081;-79
2023/05/21 09:42:47;;;;;;;11.00;9.30;;;;;;;22.23;52.68;99972.25;5013203;28;20081;-79
2023/05/21 09:45:21;;;;;;;11.35;9.77;;;;;;;22.28;51.96;99979.81;5012221;28;20510;-79
2023/05/21 09:47:50;;;;;;;15.07;9.70;;;;;;;22.36;52.19;99969.97;5012634;28;20084;-78
2023/05/21 09:50:20;;;;;;;11.77;9.07;;;;;;;22.40;52.16;99975.88;5012608;28;20089;-79
2023/05/21 09:52:51;;;;;;;12.23;9.52;;;;;;;22.46;52.27;99972.53;5013161;28;20127;-79
2023/05/21 09:55:21;;;;;;;13.02;9.95;;;;;;;22.52;51.99;99971.06;5012323;28;20056;-78
2023/05/21 09:57:48;;;;;;;11.88;9.52;;;;;;;22.59;52.07;99968.59;5012444;28;20054;-79
2023/05/21 10:00:16;;;;;;;12.52;9.98;;;;;;;22.68;51.78;99973.00;5012712;28;20137;-79
2023/05/21 10:02:47;;;;;;;14.60;9.70;;;;;;;22.75;51.71;99967.81;5012583;28;20068;-79
2023/05/21 10:05:15;;;;;;;16.15;10.70;;;;;;;22.86;51.64;99969.38;5012455;28;20065;-78
2023/05/21 10:07:48;;;;;;;12.60;9.73;;;;;;;22.93;51.30;99966.88;5012061;28;20061;-79
2023/05/21 10:10:17;;;;;;;10.23;9.13;;;;;;;23.03;51.27;99972.97;5012618;28;20144;-79
2023/05/21 10:12:45;;;;;;;11.77;9.63;;;;;;;23.10;51.38;99978.50;5012050;28;20058;-79
2023/05/21 10:15:19;;;;;;;11.52;10.02;;;;;;;23.15;51.08;99968.13;5011958;28;20649;-78
2023/05/21 10:17:48;;;;;;;11.38;10.05;;;;;;;23.23;50.86;99965.44;5011739;28;20058;-79
2023/05/21 10:20:16;;;;;;;11.90;10.32;;;;;;;23.29;50.90;99956.72;5004952;28;20161;-79
2023/05/21 10:22:43;;;;;;;12.75;10.32;;;;;;;23.35;50.59;99960.63;5012018;28;20054;-78
2023/05/21 10:25:12;;;;;;;13.95;10.27;;;;;;;23.40;50.75;99958.25;5011992;28;20054;-79
2023/05/21 10:27:40;;;;;;;12.93;10.68;;;;;;;23.49;50.49;99953.75;5011847;28;20144;-79
2023/05/21 10:30:08;;;;;;;12.93;10.65;;;;;;;23.56;51.18;99943.16;5003510;28;20391;-79
2023/05/21 10:32:34;;;;;;;11.50;10.30;;;;;;;23.63;50.50;99946.84;5011273;28;20422;-80
2023/05/21 10:35:01;;;;;;;13.95;10.70;;;;;;;23.71;50.32;99943.34;5017799;28;20061;-78
2023/05/21 10:37:28;;;;;;;13.95;10.18;;;;;;;23.78;50.41;99941.63;5031037;28;20049;-78
2023/05/21 10:39:55;;;;;;;12.35;10.93;;;;;;;23.84;49.81;99936.59;5018506;28;20064;-79
2023/05/21 10:42:31;;;;;;;13.18;10.57;;;;;;;23.89;50.01;99936.91;5012217;28;20068;-79
2023/05/21 10:45:31;;;;;;;13.65;10.20;;;;;;;23.99;50.24;99929.50;5009534;28;20058;-79
2023/05/21 10:48:11;;;;;;;11.23;10.02;;;;;;;24.17;49.39;99917.72;5011023;28;20084;-79
2023/05/21 10:51:22;;;;;;;12.52;10.95;;;;;;;24.27;49.83;99923.75;5013113;28;20497;-79
2023/05/21 10:53:58;;;;;;;12.88;10.73;;;;;;;24.42;49.85;99923.00;5031159;28;20049;-79
2023/05/21 10:56:35;;;;;;;14.20;10.40;;;;;;;24.52;49.54;99929.00;5031002;28;20061;-80
2023/05/21 10:59:28;;;;;;;11.63;10.25;;;;;;;24.62;49.51;99934.19;5031360;28;20418;-79
2023/05/21 11:01:56;;;;;;;14.13;10.20;;;;;;;24.77;49.25;99928.03;5026227;28;20060;-79
2023/05/21 11:04:25;;;;;;;12.32;10.88;;;;;;;24.87;48.77;99925.16;5011620;28;20112;-79
2023/05/21 11:06:52;;;;;;;13.38;10.95;;;;;;;24.99;49.18;99931.81;5010781;28;20706;-79
2023/05/21 11:09:19;;;;;;;15.15;10.65;;;;;;;25.11;48.50;99927.72;5011300;28;20080;-79
2023/05/21 11:11:50;;;;;;;13.60;10.00;;;;;;;25.21;47.78;99923.94;5011651;28;20058;-78
2023/05/21 11:14:41;;;;;;;13.80;11.55;;;;;;;25.28;48.42;99918.66;5011021;28;20050;-78
2023/05/21 11:17:08;;;;;;;12.10;10.07;;;;;;;25.40;48.14;99909.13;5010997;28;20050;-79
2023/05/21 11:19:40;;;;;;;12.02;10.73;;;;;;;25.48;48.38;99900.13;5010860;28;20411;-78
2023/05/21 11:22:08;;;;;;;14.48;10.30;;;;;;;25.57;48.45;99901.75;5011388;28;20057;-79
2023/05/21 11:24:37;;;;;;;12.35;9.73;;;;;;;25.67;47.79;99908.78;4993690;28;20662;-79
2023/05/21 11:27:05;;;;;;;12.25;10.70;;;;;;;25.81;48.06;99910.66;4993290;28;20088;-79
2023/05/21 11:29:43;;;;;;;13.05;10.40;;;;;;;25.92;47.78;99913.91;5030758;28;20145;-80
2023/05/21 11:32:12;;;;;;;17.17;10.50;;;;;;;26.11;47.97;99912.50;5030441;28;20479;-80
2023/05/21 11:34:46;;;;;;;12.45;10.45;;;;;;;26.30;48.01;99903.03;5030536;28;20441;-79
2023/05/21 11:37:22;;;;;;;14.82;11.27;;;;;;;26.50;46.86;99905.16;5021781;28;20387;-79
2023/05/21 11:39:50;;;;;;;10.77;9.68;;;;;;;26.72;47.03;99899.81;5025630;28;20447;-79
2023/05/21 11:42:31;;;;;;;11.68;10.35;;;;;;;26.84;46.06;99903.69;5014607;28;20140;-78
2023/05/21 11:44:59;;;;;;;12.90;10.38;;;;;;;27.00;45.98;99890.97;5016049;28;20084;-79
2023/05/21 11:47:27;;;;;;;12.10;10.80;;;;;;;27.06;45.70;99898.34;5010148;28;20145;-78
2023/05/21 11:49:55;;;;;;;11.77;10.40;;;;;;;27.10;45.00;99896.88;5011128;28;20511;-79
2023/05/21 11:52:22;;;;;;;13.00;11.15;;;;;;;27.11;44.99;99901.28;5010500;28;20406;-79
2023/05/21 11:54:55;;;;;;;11.07;9.90;;;;;;;27.07;44.54;99897.31;5010492;28;20069;-79
2023/05/21 11:57:25;;;;;;;11.80;9.93;;;;;;;27.01;44.54;99893.50;5010074;28;20058;-78
2023/05/21 11:59:52;;;;;;;11.95;9.50;;;;;;;26.93;44.81;99896.28;5011220;28;20097;-79
2023/05/21 12:02:20;;;;;;;12.48;11.02;;;;;;;26.85;44.70;99891.00;5010531;28;20092;-78
2023/05/21 12:04:48;;;;;;;13.52;10.48;;;;;;;26.78;44.87;99888.25;5010391;28;20076;-78
2023/05/21 12:07:17;;;;;;;11.13;9.73;;;;;;;26.73;44.88;99896.09;4992114;28;20139;-79
2023/05/21 12:09:49;;;;;;;11.10;9.98;;;;;;;26.69;45.08;99889.38;5010766;28;20064;-80
2023/05/21 12:12:21;;;;;;;12.50;10.55;;;;;;;26.64;44.78;99881.84;5011051;28;20065;-80
2023/05/21 12:14:49;;;;;;;13.38;11.10;;;;;;;26.63;45.12;99885.59;5010464;28;20057;-79
2023/05/21 12:17:17;;;;;;;12.25;11.00;;;;;;;26.63;45.81;99890.97;5010170;28;20054;-80
2023/05/21 12:19:45;;;;;;;13.02;10.90;;;;;;;26.63;45.35;99886.44;5010139;28;20487;-80
2023/05/21 12:22:12;;;;;;;14.05;10.35;;;;;;;26.67;45.74;99887.72;5010806;28;20092;-80
2023/05/21 12:24:38;;;;;;;14.60;10.77;;;;;;;26.74;45.24;99876.16;5010234;28;20134;-78
2023/05/21 12:27:09;;;;;;;12.20;10.98;;;;;;;26.81;44.94;99887.88;5010373;28;20072;-79
2023/05/21 12:29:37;;;;;;;13.35;10.82;;;;;;;26.89;45.19;99884.19;5029809;28;20560;-79
2023/05/21 12:32:06;;;;;;;12.25;10.68;;;;;;;26.99;45.27;99890.13;5030291;28;20054;-79
2023/05/21 12:34:45;;;;;;;13.50;10.57;;;;;;;27.10;44.43;99882.56;5030049;28;20053;-79
2023/05/21 12:37:19;;;;;;;12.07;10.82;;;;;;;27.26;44.34;99887.69;5029581;28;20490;-79
2023/05/21 12:39:47;;;;;;;13.60;10.60;;;;;;;27.41;44.91;99895.72;5026376;28;20093;-79
2023/05/21 12:42:14;;;;;;;12.20;10.13;;;;;;;27.54;45.19;99891.44;5030140;28;20481;-79
2023/05/21 12:44:47;;;;;;;17.73;10.90;;;;;;;27.62;44.55;99894.03;5025570;28;20064;-79
2023/05/21 12:47:14;;;;;;;13.35;10.65;;;;;;;27.70;44.37;99893.88;5029998;28;20477;-78
2023/05/21 12:49:51;;;;;;;12.30;9.98;;;;;;;27.72;43.64;99888.28;5029966;28;20072;-79
2023/05/21 12:52:21;;;;;;;13.68;11.80;;;;;;;27.77;44.25;99895.81;5023391;28;20053;-79
2023/05/21 12:54:52;;;;;;;13.95;10.82;;;;;;;27.79;43.97;99891.88;5031427;28;20061;-78
2023/05/21 12:57:23;;;;;;;13.57;10.98;;;;;;;27.93;44.91;99891.94;5033233;28;20103;-80
2023/05/21 12:59:54;;;;;;;11.80;10.60;;;;;;;28.12;44.82;99893.09;5033240;28;20054;-78
2023/05/21 13:02:27;;;;;;;11.63;10.43;;;;;;;28.34;43.82;99882.19;5026703;28;20112;-79
2023/05/21 13:05:02;;;;;;;12.10;10.82;;;;;;;28.59;43.48;99889.78;5031654;28;20059;-79
2023/05/21 13:07:30;;;;;;;12.07;10.85;;;;;;;28.74;42.71;99876.06;5032509;28;20564;-83
2023/05/21 13:09:59;;;;;;;10.63;9.52;;;;;;;28.85;42.77;99874.59;5033530;28;20502;-80
2023/05/21 13:12:29;;;;;;;12.98;10.18;;;;;;;28.92;42.39;99877.38;5032979;28;20065;-80
2023/05/21 13:14:58;;;;;;;12.25;10.82;;;;;;;28.97;43.00;99877.59;5032867;28;20050;-80
2023/05/21 13:17:26;;;;;;;13.70;10.75;;;;;;;29.06;42.83;99867.38;5032315;28;20108;-80
2023/05/21 13:20:07;;;;;;;14.60;10.65;;;;;;;29.10;41.96;99866.78;5023824;28;20570;-80
2023/05/21 13:22:37;;;;;;;16.08;11.30;;;;;;;29.21;41.95;99867.19;5026866;28;20413;-80
2023/05/21 13:25:06;;;;;;;13.68;11.32;;;;;;;29.25;41.89;99863.84;5031937;28;20144;-81
2023/05/21 13:27:32;;;;;;;14.70;11.15;;;;;;;29.29;41.99;99860.75;5028059;28;20058;-81
2023/05/21 13:29:59;;;;;;;11.73;10.52;;;;;;;29.34;42.35;99867.19;5013476;28;20144;-80
2023/05/21 13:32:26;;;;;;;15.10;11.68;;;;;;;29.46;42.98;99863.84;5012779;28;20057;-80
2023/05/21 13:34:53;;;;;;;15.18;10.80;;;;;;;29.61;42.34;99860.94;5012907;28;20050;-81
2023/05/21 13:37:19;;;;;;;13.82;11.35;;;;;;;29.82;42.09;99859.84;5012167;28;20058;-81